sensor_id;sensor_type;location;lat;lon;timestamp;P1;durP1;ratioP1;P2;durP2;ratioP2
54845;SDS011;53889;50.084;8.646;2022-08-19T00:00:15;12.85;;;10.63;;
54845;SDS011;53889;50.084;8.646;2022-08-19T00:02:44;15.00;;;11.13;;
54845;SDS011;53889;50.084;8.646;2022-08-19T00:05:13;13.35;;;11.00;;
54845;SDS011;53889;50.084;8.646;2022-08-19T00:07:51;14.77;;;11.30;;
54845;SDS011;53889;50.084;8.646;2022-08-19T00:10:18;13.15;;;11.13;;
54845;SDS011;53889;50.084;8.646;2022-08-19T00:12:46;13.98;;;10.77;;
54845;SDS011;53889;50.084;8.646;2022-08-19T00:15:15;13.35;;;11.65;;
54845;SDS011;53889;50.084;8.646;2022-08-19T00:17:44;14.30;;;11.48;;
54845;SDS011;53889;50.084;8.646;2022-08-19T00:20:12;13.95;;;11.35;;
54845;SDS011;53889;50.084;8.646;2022-08-19T00:22:42;13.25;;;10.75;;
54845;SDS011;53889;50.084;8.646;2022-08-19T00:25:10;14.35;;;11.07;;
54845;SDS011;53889;50.084;8.646;2022-08-19T00:27:38;15.13;;;11.55;;
54845;SDS011;53889;50.084;8.646;2022-08-19T00:30:06;13.82;;;11.10;;
54845;SDS011;53889;50.084;8.646;2022-08-19T00:32:35;14.05;;;11.25;;
54845;SDS011;53889;50.084;8.646;2022-08-19T00:35:02;13.27;;;10.43;;
54845;SDS011;53889;50.084;8.646;2022-08-19T00:37:29;13.98;;;10.50;;
54845;SDS011;53889;50.084;8.646;2022-08-19T00:39:55;12.45;;;11.00;;
54845;SDS011;53889;50.084;8.646;2022-08-19T00:42:23;13.43;;;10.82;;
54845;SDS011;53889;50.084;8.646;2022-08-19T00:44:53;13.13;;;11.02;;
54845;SDS011;53889;50.084;8.646;2022-08-19T00:47:20;13.80;;;10.90;;
54845;SDS011;53889;50.084;8.646;2022-08-19T00:49:47;13.40;;;10.98;;
54845;SDS011;53889;50.084;8.646;2022-08-19T00:52:17;13.95;;;11.25;;
54845;SDS011;53889;50.084;8.646;2022-08-19T00:54:46;12.90;;;10.80;;
54845;SDS011;53889;50.084;8.646;2022-08-19T00:57:15;14.30;;;10.50;;
54845;SDS011;53889;50.084;8.646;2022-08-19T00:59:46;14.23;;;11.23;;
54845;SDS011;53889;50.084;8.646;2022-08-19T01:02:17;12.10;;;10.45;;
54845;SDS011;53889;50.084;8.646;2022-08-19T01:04:44;13.52;;;11.02;;
54845;SDS011;53889;50.084;8.646;2022-08-19T01:07:11;21.58;;;17.20;;
54845;SDS011;53889;50.084;8.646;2022-08-19T01:09:38;14.20;;;10.85;;
54845;SDS011;53889;50.084;8.646;2022-08-19T01:12:05;12.55;;;10.50;;
54845;SDS011;53889;50.084;8.646;2022-08-19T01:14:32;13.40;;;10.80;;
54845;SDS011;53889;50.084;8.646;2022-08-19T01:17:01;13.20;;;10.40;;
54845;SDS011;53889;50.084;8.646;2022-08-19T01:19:29;12.40;;;10.00;;
54845;SDS011;53889;50.084;8.646;2022-08-19T01:22:00;12.13;;;9.73;;
54845;SDS011;53889;50.084;8.646;2022-08-19T01:24:32;12.95;;;10.40;;
54845;SDS011;53889;50.084;8.646;2022-08-19T01:26:59;11.43;;;9.60;;
54845;SDS011;53889;50.084;8.646;2022-08-19T01:29:26;12.30;;;9.65;;
54845;SDS011;53889;50.084;8.646;2022-08-19T01:31:54;13.25;;;9.68;;
54845;SDS011;53889;50.084;8.646;2022-08-19T01:34:20;13.25;;;9.75;;
54845;SDS011;53889;50.084;8.646;2022-08-19T01:36:47;12.73;;;9.70;;
54845;SDS011;53889;50.084;8.646;2022-08-19T01:39:16;12.85;;;9.80;;
54845;SDS011;53889;50.084;8.646;2022-08-19T01:41:46;12.45;;;9.50;;
54845;SDS011;53889;50.084;8.646;2022-08-19T01:44:13;12.50;;;9.32;;
54845;SDS011;53889;50.084;8.646;2022-08-19T01:46:41;12.35;;;9.88;;
54845;SDS011;53889;50.084;8.646;2022-08-19T01:49:08;10.55;;;8.98;;
54845;SDS011;53889;50.084;8.646;2022-08-19T01:51:36;11.38;;;9.18;;
54845;SDS011;53889;50.084;8.646;2022-08-19T01:54:03;12.73;;;9.43;;
54845;SDS011;53889;50.084;8.646;2022-08-19T01:56:30;11.82;;;9.18;;
54845;SDS011;53889;50.084;8.646;2022-08-19T01:58:59;11.02;;;8.98;;
54845;SDS011;53889;50.084;8.646;2022-08-19T02:01:29;11.32;;;9.00;;
54845;SDS011;53889;50.084;8.646;2022-08-19T02:03:56;13.27;;;9.20;;
54845;SDS011;53889;50.084;8.646;2022-08-19T02:06:23;11.32;;;9.00;;
54845;SDS011;53889;50.084;8.646;2022-08-19T02:08:50;11.75;;;9.20;;
54845;SDS011;53889;50.084;8.646;2022-08-19T02:11:18;12.48;;;9.40;;
54845;SDS011;53889;50.084;8.646;2022-08-19T02:13:46;11.38;;;9.40;;
54845;SDS011;53889;50.084;8.646;2022-08-19T02:16:15;12.52;;;9.82;;
54845;SDS011;53889;50.084;8.646;2022-08-19T02:18:42;12.40;;;9.48;;
54845;SDS011;53889;50.084;8.646;2022-08-19T02:21:09;12.05;;;9.30;;
54845;SDS011;53889;50.084;8.646;2022-08-19T02:23:36;11.52;;;8.98;;
54845;SDS011;53889;50.084;8.646;2022-08-19T02:26:03;10.77;;;9.20;;
54845;SDS011;53889;50.084;8.646;2022-08-19T02:28:30;10.43;;;8.00;;
54845;SDS011;53889;50.084;8.646;2022-08-19T02:30:57;12.82;;;8.88;;
54845;SDS011;53889;50.084;8.646;2022-08-19T02:33:27;10.65;;;8.45;;
54845;SDS011;53889;50.084;8.646;2022-08-19T02:35:53;11.13;;;8.43;;
54845;SDS011;53889;50.084;8.646;2022-08-19T02:38:20;11.20;;;8.32;;
54845;SDS011;53889;50.084;8.646;2022-08-19T02:40:52;10.35;;;8.38;;
54845;SDS011;53889;50.084;8.646;2022-08-19T02:43:22;10.85;;;8.23;;
54845;SDS011;53889;50.084;8.646;2022-08-19T02:45:49;10.73;;;8.02;;
54845;SDS011;53889;50.084;8.646;2022-08-19T02:48:17;9.65;;;7.63;;
54845;SDS011;53889;50.084;8.646;2022-08-19T02:50:46;9.38;;;7.90;;
54845;SDS011;53889;50.084;8.646;2022-08-19T02:53:16;10.88;;;8.43;;
54845;SDS011;53889;50.084;8.646;2022-08-19T02:55:43;10.60;;;7.85;;
54845;SDS011;53889;50.084;8.646;2022-08-19T02:58:11;11.88;;;8.07;;
54845;SDS011;53889;50.084;8.646;2022-08-19T03:00:40;11.52;;;8.30;;
54845;SDS011;53889;50.084;8.646;2022-08-19T03:03:08;10.05;;;8.23;;
54845;SDS011;53889;50.084;8.646;2022-08-19T03:05:36;10.77;;;8.30;;
54845;SDS011;53889;50.084;8.646;2022-08-19T03:08:04;11.23;;;8.40;;
54845;SDS011;53889;50.084;8.646;2022-08-19T03:10:31;10.07;;;7.60;;
54845;SDS011;53889;50.084;8.646;2022-08-19T03:12:58;11.82;;;8.30;;
54845;SDS011;53889;50.084;8.646;2022-08-19T03:15:25;10.30;;;8.13;;
54845;SDS011;53889;50.084;8.646;2022-08-19T03:17:52;10.35;;;8.15;;
54845;SDS011;53889;50.084;8.646;2022-08-19T03:20:19;10.48;;;8.35;;
54845;SDS011;53889;50.084;8.646;2022-08-19T03:22:46;13.88;;;8.20;;
54845;SDS011;53889;50.084;8.646;2022-08-19T03:25:14;12.25;;;8.50;;
54845;SDS011;53889;50.084;8.646;2022-08-19T03:27:41;11.10;;;8.00;;
54845;SDS011;53889;50.084;8.646;2022-08-19T03:30:09;10.32;;;8.55;;
54845;SDS011;53889;50.084;8.646;2022-08-19T03:32:36;12.45;;;8.50;;
54845;SDS011;53889;50.084;8.646;2022-08-19T03:35:03;11.90;;;7.88;;
54845;SDS011;53889;50.084;8.646;2022-08-19T03:37:31;10.73;;;8.40;;
54845;SDS011;53889;50.084;8.646;2022-08-19T03:39:57;11.05;;;8.57;;
54845;SDS011;53889;50.084;8.646;2022-08-19T03:42:25;10.52;;;8.13;;
54845;SDS011;53889;50.084;8.646;2022-08-19T03:44:52;11.20;;;8.57;;
54845;SDS011;53889;50.084;8.646;2022-08-19T03:47:19;12.93;;;8.75;;
54845;SDS011;53889;50.084;8.646;2022-08-19T03:49:46;12.02;;;9.05;;
54845;SDS011;53889;50.084;8.646;2022-08-19T03:52:12;11.55;;;8.45;;
54845;SDS011;53889;50.084;8.646;2022-08-19T03:54:39;10.65;;;8.43;;
54845;SDS011;53889;50.084;8.646;2022-08-19T03:57:06;10.30;;;8.15;;
54845;SDS011;53889;50.084;8.646;2022-08-19T03:59:36;11.82;;;8.27;;
54845;SDS011;53889;50.084;8.646;2022-08-19T04:02:06;11.68;;;8.45;;
54845;SDS011;53889;50.084;8.646;2022-08-19T04:04:34;10.57;;;8.35;;
54845;SDS011;53889;50.084;8.646;2022-08-19T04:07:02;11.73;;;8.27;;
54845;SDS011;53889;50.084;8.646;2022-08-19T04:09:29;12.50;;;8.40;;
54845;SDS011;53889;50.084;8.646;2022-08-19T04:11:57;10.45;;;8.68;;
54845;SDS011;53889;50.084;8.646;2022-08-19T04:14:25;11.52;;;8.40;;
54845;SDS011;53889;50.084;8.646;2022-08-19T04:16:56;11.38;;;8.20;;
54845;SDS011;53889;50.084;8.646;2022-08-19T04:19:24;9.00;;;7.65;;
54845;SDS011;53889;50.084;8.646;2022-08-19T04:21:52;10.98;;;8.15;;
54845;SDS011;53889;50.084;8.646;2022-08-19T04:24:20;10.90;;;7.90;;
54845;SDS011;53889;50.084;8.646;2022-08-19T04:26:48;10.00;;;8.07;;
54845;SDS011;53889;50.084;8.646;2022-08-19T04:29:20;12.23;;;7.57;;
54845;SDS011;53889;50.084;8.646;2022-08-19T04:31:50;9.60;;;7.83;;
54845;SDS011;53889;50.084;8.646;2022-08-19T04:34:20;10.55;;;8.18;;
54845;SDS011;53889;50.084;8.646;2022-08-19T04:36:49;10.95;;;8.18;;
54845;SDS011;53889;50.084;8.646;2022-08-19T04:39:17;9.68;;;7.43;;
54845;SDS011;53889;50.084;8.646;2022-08-19T04:41:45;10.00;;;7.53;;
54845;SDS011;53889;50.084;8.646;2022-08-19T04:44:30;11.15;;;7.63;;
54845;SDS011;53889;50.084;8.646;2022-08-19T04:46:58;10.70;;;7.35;;
54845;SDS011;53889;50.084;8.646;2022-08-19T04:49:26;8.48;;;7.35;;
54845;SDS011;53889;50.084;8.646;2022-08-19T04:51:54;10.07;;;7.65;;
54845;SDS011;53889;50.084;8.646;2022-08-19T04:54:21;8.73;;;7.05;;
54845;SDS011;53889;50.084;8.646;2022-08-19T04:56:50;9.82;;;7.03;;
54845;SDS011;53889;50.084;8.646;2022-08-19T04:59:18;11.80;;;7.68;;
54845;SDS011;53889;50.084;8.646;2022-08-19T05:01:45;9.25;;;7.03;;
54845;SDS011;53889;50.084;8.646;2022-08-19T05:04:15;9.18;;;6.88;;
54845;SDS011;53889;50.084;8.646;2022-08-19T05:06:44;8.40;;;6.93;;
54845;SDS011;53889;50.084;8.646;2022-08-19T05:09:12;10.85;;;7.00;;
54845;SDS011;53889;50.084;8.646;2022-08-19T05:11:38;8.95;;;6.93;;
54845;SDS011;53889;50.084;8.646;2022-08-19T05:14:05;10.25;;;7.43;;
54845;SDS011;53889;50.084;8.646;2022-08-19T05:16:33;10.93;;;6.75;;
54845;SDS011;53889;50.084;8.646;2022-08-19T05:19:00;8.40;;;6.75;;
54845;SDS011;53889;50.084;8.646;2022-08-19T05:21:46;8.70;;;6.13;;
54845;SDS011;53889;50.084;8.646;2022-08-19T05:26:59;8.68;;;6.22;;
54845;SDS011;53889;50.084;8.646;2022-08-19T05:29:28;8.75;;;6.32;;
54845;SDS011;53889;50.084;8.646;2022-08-19T05:31:57;8.23;;;6.10;;
54845;SDS011;53889;50.084;8.646;2022-08-19T05:34:24;8.82;;;7.00;;
54845;SDS011;53889;50.084;8.646;2022-08-19T05:36:54;8.50;;;5.68;;
54845;SDS011;53889;50.084;8.646;2022-08-19T05:39:23;8.05;;;6.03;;
54845;SDS011;53889;50.084;8.646;2022-08-19T05:41:52;8.18;;;6.00;;
54845;SDS011;53889;50.084;8.646;2022-08-19T05:44:22;8.65;;;5.63;;
54845;SDS011;53889;50.084;8.646;2022-08-19T05:46:49;7.18;;;5.47;;
54845;SDS011;53889;50.084;8.646;2022-08-19T05:49:18;9.90;;;5.95;;
54845;SDS011;53889;50.084;8.646;2022-08-19T05:51:46;7.07;;;5.20;;
54845;SDS011;53889;50.084;8.646;2022-08-19T05:54:14;7.57;;;5.57;;
54845;SDS011;53889;50.084;8.646;2022-08-19T05:56:41;7.75;;;5.60;;
54845;SDS011;53889;50.084;8.646;2022-08-19T05:59:10;7.72;;;5.40;;
54845;SDS011;53889;50.084;8.646;2022-08-19T06:01:37;6.50;;;5.28;;
54845;SDS011;53889;50.084;8.646;2022-08-19T06:04:04;15.68;;;10.38;;
54845;SDS011;53889;50.084;8.646;2022-08-19T06:06:32;12.63;;;8.98;;
54845;SDS011;53889;50.084;8.646;2022-08-19T06:09:00;13.35;;;9.07;;
54845;SDS011;53889;50.084;8.646;2022-08-19T06:11:34;12.25;;;8.75;;
54845;SDS011;53889;50.084;8.646;2022-08-19T06:14:03;9.25;;;5.00;;
54845;SDS011;53889;50.084;8.646;2022-08-19T06:16:33;11.20;;;4.78;;
54845;SDS011;53889;50.084;8.646;2022-08-19T06:19:01;9.93;;;4.05;;
54845;SDS011;53889;50.084;8.646;2022-08-19T06:21:29;6.28;;;3.80;;
54845;SDS011;53889;50.084;8.646;2022-08-19T06:23:57;6.28;;;3.80;;
54845;SDS011;53889;50.084;8.646;2022-08-19T06:26:25;5.32;;;3.90;;
54845;SDS011;53889;50.084;8.646;2022-08-19T06:28:54;8.63;;;3.80;;
54845;SDS011;53889;50.084;8.646;2022-08-19T06:31:21;5.28;;;3.50;;
54845;SDS011;53889;50.084;8.646;2022-08-19T06:33:50;6.38;;;4.00;;
54845;SDS011;53889;50.084;8.646;2022-08-19T06:36:17;6.18;;;3.20;;
54845;SDS011;53889;50.084;8.646;2022-08-19T06:38:45;7.30;;;3.60;;
54845;SDS011;53889;50.084;8.646;2022-08-19T06:41:11;4.53;;;3.20;;
54845;SDS011;53889;50.084;8.646;2022-08-19T06:43:38;4.43;;;2.83;;
54845;SDS011;53889;50.084;8.646;2022-08-19T06:46:10;4.45;;;3.17;;
54845;SDS011;53889;50.084;8.646;2022-08-19T06:48:38;5.97;;;2.95;;
54845;SDS011;53889;50.084;8.646;2022-08-19T06:51:05;4.38;;;2.85;;
54845;SDS011;53889;50.084;8.646;2022-08-19T06:53:32;6.63;;;3.15;;
54845;SDS011;53889;50.084;8.646;2022-08-19T06:55:59;5.40;;;3.00;;
54845;SDS011;53889;50.084;8.646;2022-08-19T06:58:27;6.22;;;3.08;;
54845;SDS011;53889;50.084;8.646;2022-08-19T07:00:57;4.50;;;2.72;;
54845;SDS011;53889;50.084;8.646;2022-08-19T07:03:28;4.90;;;2.75;;
54845;SDS011;53889;50.084;8.646;2022-08-19T07:05:56;5.63;;;3.10;;
54845;SDS011;53889;50.084;8.646;2022-08-19T07:08:24;4.43;;;2.80;;
54845;SDS011;53889;50.084;8.646;2022-08-19T07:10:52;4.57;;;2.70;;
54845;SDS011;53889;50.084;8.646;2022-08-19T07:13:19;5.93;;;3.70;;
54845;SDS011;53889;50.084;8.646;2022-08-19T07:15:47;7.38;;;4.65;;
54845;SDS011;53889;50.084;8.646;2022-08-19T07:18:16;9.05;;;6.18;;
54845;SDS011;53889;50.084;8.646;2022-08-19T07:20:46;8.27;;;5.70;;
54845;SDS011;53889;50.084;8.646;2022-08-19T07:23:13;6.63;;;4.60;;
54845;SDS011;53889;50.084;8.646;2022-08-19T07:25:40;8.32;;;4.43;;
54845;SDS011;53889;50.084;8.646;2022-08-19T07:28:08;5.03;;;2.83;;
54845;SDS011;53889;50.084;8.646;2022-08-19T07:30:36;6.13;;;3.20;;
54845;SDS011;53889;50.084;8.646;2022-08-19T07:33:05;4.85;;;3.13;;
54845;SDS011;53889;50.084;8.646;2022-08-19T07:35:32;6.47;;;3.40;;
54845;SDS011;53889;50.084;8.646;2022-08-19T07:38:01;4.57;;;3.05;;
54845;SDS011;53889;50.084;8.646;2022-08-19T07:40:28;5.95;;;2.75;;
54845;SDS011;53889;50.084;8.646;2022-08-19T07:42:56;3.08;;;2.30;;
54845;SDS011;53889;50.084;8.646;2022-08-19T07:45:23;4.07;;;2.40;;
54845;SDS011;53889;50.084;8.646;2022-08-19T07:47:50;3.90;;;2.30;;
54845;SDS011;53889;50.084;8.646;2022-08-19T07:50:17;4.78;;;2.67;;
54845;SDS011;53889;50.084;8.646;2022-08-19T07:52:45;4.85;;;2.75;;
54845;SDS011;53889;50.084;8.646;2022-08-19T07:55:13;3.85;;;2.80;;
54845;SDS011;53889;50.084;8.646;2022-08-19T07:57:40;4.93;;;2.70;;
54845;SDS011;53889;50.084;8.646;2022-08-19T08:00:07;4.70;;;2.70;;
54845;SDS011;53889;50.084;8.646;2022-08-19T08:02:37;4.13;;;2.60;;
54845;SDS011;53889;50.084;8.646;2022-08-19T08:05:04;3.55;;;2.67;;
54845;SDS011;53889;50.084;8.646;2022-08-19T08:07:48;3.03;;;2.20;;
54845;SDS011;53889;50.084;8.646;2022-08-19T08:10:42;6.10;;;2.83;;
54845;SDS011;53889;50.084;8.646;2022-08-19T08:13:09;3.92;;;2.92;;
54845;SDS011;53889;50.084;8.646;2022-08-19T08:15:36;4.10;;;2.83;;
54845;SDS011;53889;50.084;8.646;2022-08-19T08:18:04;6.93;;;2.97;;
54845;SDS011;53889;50.084;8.646;2022-08-19T08:20:31;3.22;;;2.58;;
54845;SDS011;53889;50.084;8.646;2022-08-19T08:22:57;5.68;;;2.88;;
54845;SDS011;53889;50.084;8.646;2022-08-19T08:25:43;4.97;;;2.72;;
54845;SDS011;53889;50.084;8.646;2022-08-19T08:28:10;4.85;;;2.90;;
54845;SDS011;53889;50.084;8.646;2022-08-19T08:30:36;5.38;;;3.05;;
54845;SDS011;53889;50.084;8.646;2022-08-19T08:33:06;7.30;;;3.20;;
54845;SDS011;53889;50.084;8.646;2022-08-19T08:35:33;4.85;;;2.72;;
54845;SDS011;53889;50.084;8.646;2022-08-19T08:38:00;4.88;;;2.90;;
54845;SDS011;53889;50.084;8.646;2022-08-19T08:40:29;4.07;;;2.75;;
54845;SDS011;53889;50.084;8.646;2022-08-19T08:43:06;5.40;;;2.80;;
54845;SDS011;53889;50.084;8.646;2022-08-19T08:45:36;6.72;;;3.13;;
54845;SDS011;53889;50.084;8.646;2022-08-19T08:48:10;3.85;;;2.67;;
54845;SDS011;53889;50.084;8.646;2022-08-19T08:53:12;5.60;;;3.50;;
54845;SDS011;53889;50.084;8.646;2022-08-19T08:55:43;6.25;;;3.42;;
54845;SDS011;53889;50.084;8.646;2022-08-19T08:58:13;5.65;;;3.03;;
54845;SDS011;53889;50.084;8.646;2022-08-19T09:00:48;5.63;;;3.17;;
54845;SDS011;53889;50.084;8.646;2022-08-19T09:03:17;6.65;;;3.20;;
54845;SDS011;53889;50.084;8.646;2022-08-19T09:05:47;5.28;;;3.28;;
54845;SDS011;53889;50.084;8.646;2022-08-19T09:08:24;4.38;;;2.83;;
54845;SDS011;53889;50.084;8.646;2022-08-19T09:10:59;5.65;;;3.10;;
54845;SDS011;53889;50.084;8.646;2022-08-19T09:13:33;4.57;;;2.92;;
54845;SDS011;53889;50.084;8.646;2022-08-19T09:16:09;6.07;;;2.80;;
54845;SDS011;53889;50.084;8.646;2022-08-19T09:18:39;4.55;;;2.70;;
54845;SDS011;53889;50.084;8.646;2022-08-19T09:21:07;3.83;;;2.70;;
54845;SDS011;53889;50.084;8.646;2022-08-19T09:23:35;7.45;;;3.15;;
54845;SDS011;53889;50.084;8.646;2022-08-19T09:26:06;4.18;;;2.45;;
54845;SDS011;53889;50.084;8.646;2022-08-19T09:28:35;5.00;;;2.70;;
54845;SDS011;53889;50.084;8.646;2022-08-19T09:31:02;6.43;;;2.88;;
54845;SDS011;53889;50.084;8.646;2022-08-19T09:33:29;6.18;;;2.67;;
54845;SDS011;53889;50.084;8.646;2022-08-19T09:36:07;2.97;;;2.00;;
54845;SDS011;53889;50.084;8.646;2022-08-19T09:38:36;5.40;;;2.38;;
54845;SDS011;53889;50.084;8.646;2022-08-19T09:41:05;3.92;;;2.10;;
54845;SDS011;53889;50.084;8.646;2022-08-19T09:43:35;5.72;;;2.70;;
54845;SDS011;53889;50.084;8.646;2022-08-19T09:46:02;5.90;;;2.58;;
54845;SDS011;53889;50.084;8.646;2022-08-19T09:48:30;3.70;;;2.53;;
54845;SDS011;53889;50.084;8.646;2022-08-19T09:51:02;3.30;;;2.60;;
54845;SDS011;53889;50.084;8.646;2022-08-19T09:53:30;3.42;;;2.60;;
54845;SDS011;53889;50.084;8.646;2022-08-19T09:55:56;4.13;;;2.70;;
54845;SDS011;53889;50.084;8.646;2022-08-19T09:58:23;5.18;;;3.00;;
54845;SDS011;53889;50.084;8.646;2022-08-19T10:00:54;4.88;;;2.83;;
54845;SDS011;53889;50.084;8.646;2022-08-19T10:03:21;4.95;;;2.90;;
54845;SDS011;53889;50.084;8.646;2022-08-19T10:05:48;5.45;;;3.08;;
54845;SDS011;53889;50.084;8.646;2022-08-19T10:08:16;7.00;;;3.20;;
54845;SDS011;53889;50.084;8.646;2022-08-19T10:10:44;5.45;;;3.10;;
54845;SDS011;53889;50.084;8.646;2022-08-19T10:13:12;7.45;;;4.00;;
54845;SDS011;53889;50.084;8.646;2022-08-19T10:15:40;12.73;;;4.20;;
54845;SDS011;53889;50.084;8.646;2022-08-19T10:18:08;10.68;;;3.70;;
54845;SDS011;53889;50.084;8.646;2022-08-19T10:20:36;10.77;;;4.03;;
54845;SDS011;53889;50.084;8.646;2022-08-19T10:23:03;8.35;;;3.67;;
54845;SDS011;53889;50.084;8.646;2022-08-19T10:25:31;8.57;;;3.58;;
54845;SDS011;53889;50.084;8.646;2022-08-19T10:27:59;8.80;;;4.07;;
54845;SDS011;53889;50.084;8.646;2022-08-19T10:30:25;5.28;;;3.40;;
54845;SDS011;53889;50.084;8.646;2022-08-19T10:32:52;4.45;;;3.10;;
54845;SDS011;53889;50.084;8.646;2022-08-19T10:35:20;5.43;;;3.38;;
54845;SDS011;53889;50.084;8.646;2022-08-19T10:37:47;5.80;;;3.55;;
54845;SDS011;53889;50.084;8.646;2022-08-19T10:40:14;7.05;;;3.45;;
54845;SDS011;53889;50.084;8.646;2022-08-19T10:42:40;11.32;;;4.32;;
54845;SDS011;53889;50.084;8.646;2022-08-19T10:45:08;11.90;;;4.47;;
54845;SDS011;53889;50.084;8.646;2022-08-19T10:47:36;24.92;;;6.15;;
54845;SDS011;53889;50.084;8.646;2022-08-19T10:50:04;9.25;;;4.38;;
54845;SDS011;53889;50.084;8.646;2022-08-19T10:52:50;6.28;;;3.92;;
54845;SDS011;53889;50.084;8.646;2022-08-19T10:55:17;8.57;;;4.25;;
54845;SDS011;53889;50.084;8.646;2022-08-19T10:58:03;8.35;;;4.47;;
54845;SDS011;53889;50.084;8.646;2022-08-19T11:00:35;5.57;;;4.30;;
54845;SDS011;53889;50.084;8.646;2022-08-19T11:03:02;5.40;;;4.30;;
54845;SDS011;53889;50.084;8.646;2022-08-19T11:05:28;6.03;;;4.32;;
54845;SDS011;53889;50.084;8.646;2022-08-19T11:07:56;5.63;;;4.70;;
54845;SDS011;53889;50.084;8.646;2022-08-19T11:10:23;4.97;;;4.07;;
54845;SDS011;53889;50.084;8.646;2022-08-19T11:12:50;5.28;;;4.40;;
54845;SDS011;53889;50.084;8.646;2022-08-19T11:15:19;5.70;;;4.68;;
54845;SDS011;53889;50.084;8.646;2022-08-19T11:17:46;5.97;;;4.53;;
54845;SDS011;53889;50.084;8.646;2022-08-19T11:20:14;6.03;;;4.40;;
54845;SDS011;53889;50.084;8.646;2022-08-19T11:22:41;4.93;;;3.97;;
54845;SDS011;53889;50.084;8.646;2022-08-19T11:25:10;5.68;;;4.57;;
54845;SDS011;53889;50.084;8.646;2022-08-19T11:27:37;6.38;;;5.40;;
54845;SDS011;53889;50.084;8.646;2022-08-19T11:30:07;5.93;;;4.68;;
54845;SDS011;53889;50.084;8.646;2022-08-19T11:32:35;6.35;;;4.63;;
54845;SDS011;53889;50.084;8.646;2022-08-19T11:35:02;7.18;;;4.85;;
54845;SDS011;53889;50.084;8.646;2022-08-19T11:37:29;6.18;;;4.80;;
54845;SDS011;53889;50.084;8.646;2022-08-19T11:39:57;6.82;;;5.03;;
54845;SDS011;53889;50.084;8.646;2022-08-19T11:42:26;7.13;;;5.50;;
54845;SDS011;53889;50.084;8.646;2022-08-19T11:45:10;8.38;;;5.13;;
54845;SDS011;53889;50.084;8.646;2022-08-19T11:47:39;8.13;;;5.00;;
54845;SDS011;53889;50.084;8.646;2022-08-19T11:50:05;5.50;;;4.70;;
54845;SDS011;53889;50.084;8.646;2022-08-19T11:52:33;8.35;;;5.35;;
54845;SDS011;53889;50.084;8.646;2022-08-19T11:54:59;6.85;;;5.63;;
54845;SDS011;53889;50.084;8.646;2022-08-19T11:57:27;6.15;;;5.55;;
54845;SDS011;53889;50.084;8.646;2022-08-19T11:59:54;6.13;;;5.53;;
54845;SDS011;53889;50.084;8.646;2022-08-19T12:02:21;11.38;;;5.65;;
54845;SDS011;53889;50.084;8.646;2022-08-19T12:04:48;13.38;;;6.22;;
54845;SDS011;53889;50.084;8.646;2022-08-19T12:07:15;14.68;;;6.90;;
54845;SDS011;53889;50.084;8.646;2022-08-19T12:09:41;8.40;;;6.05;;
54845;SDS011;53889;50.084;8.646;2022-08-19T12:12:08;10.10;;;6.28;;
54845;SDS011;53889;50.084;8.646;2022-08-19T12:14:37;10.88;;;6.18;;
54845;SDS011;53889;50.084;8.646;2022-08-19T12:17:04;6.28;;;5.45;;
54845;SDS011;53889;50.084;8.646;2022-08-19T12:19:32;8.18;;;5.28;;
54845;SDS011;53889;50.084;8.646;2022-08-19T12:22:00;6.70;;;5.30;;
54845;SDS011;53889;50.084;8.646;2022-08-19T12:24:30;7.70;;;5.15;;
54845;SDS011;53889;50.084;8.646;2022-08-19T12:26:57;7.82;;;5.13;;
54845;SDS011;53889;50.084;8.646;2022-08-19T12:29:26;6.53;;;5.10;;
54845;SDS011;53889;50.084;8.646;2022-08-19T12:31:55;6.10;;;5.40;;
54845;SDS011;53889;50.084;8.646;2022-08-19T12:34:26;6.22;;;5.63;;
54845;SDS011;53889;50.084;8.646;2022-08-19T12:36:54;6.10;;;5.20;;
54845;SDS011;53889;50.084;8.646;2022-08-19T12:39:21;5.68;;;5.05;;
54845;SDS011;53889;50.084;8.646;2022-08-19T12:41:48;5.90;;;5.30;;
54845;SDS011;53889;50.084;8.646;2022-08-19T12:44:15;5.40;;;4.90;;
54845;SDS011;53889;50.084;8.646;2022-08-19T12:46:42;6.43;;;4.90;;
54845;SDS011;53889;50.084;8.646;2022-08-19T12:49:10;5.47;;;4.80;;
54845;SDS011;53889;50.084;8.646;2022-08-19T12:51:37;5.90;;;5.00;;
54845;SDS011;53889;50.084;8.646;2022-08-19T12:54:03;5.43;;;4.65;;
54845;SDS011;53889;50.084;8.646;2022-08-19T12:56:31;7.13;;;5.78;;
54845;SDS011;53889;50.084;8.646;2022-08-19T12:59:00;6.75;;;4.82;;
54845;SDS011;53889;50.084;8.646;2022-08-19T13:01:28;6.15;;;5.07;;
54845;SDS011;53889;50.084;8.646;2022-08-19T13:04:00;7.65;;;5.05;;
54845;SDS011;53889;50.084;8.646;2022-08-19T13:06:28;5.53;;;4.47;;
54845;SDS011;53889;50.084;8.646;2022-08-19T13:08:55;7.18;;;4.90;;
54845;SDS011;53889;50.084;8.646;2022-08-19T13:11:22;5.75;;;4.13;;
54845;SDS011;53889;50.084;8.646;2022-08-19T13:13:50;4.88;;;4.18;;
54845;SDS011;53889;50.084;8.646;2022-08-19T13:16:18;6.00;;;4.15;;
54845;SDS011;53889;50.084;8.646;2022-08-19T13:18:46;5.43;;;3.80;;
54845;SDS011;53889;50.084;8.646;2022-08-19T13:21:17;4.53;;;3.70;;
54845;SDS011;53889;50.084;8.646;2022-08-19T13:23:47;4.68;;;3.60;;
54845;SDS011;53889;50.084;8.646;2022-08-19T13:26:14;5.35;;;3.90;;
54845;SDS011;53889;50.084;8.646;2022-08-19T13:28:42;4.45;;;3.75;;
54845;SDS011;53889;50.084;8.646;2022-08-19T13:31:28;5.65;;;3.45;;
54845;SDS011;53889;50.084;8.646;2022-08-19T13:34:14;5.13;;;3.60;;
54845;SDS011;53889;50.084;8.646;2022-08-19T13:36:42;3.90;;;3.10;;
54845;SDS011;53889;50.084;8.646;2022-08-19T13:39:10;5.07;;;3.67;;
54845;SDS011;53889;50.084;8.646;2022-08-19T13:41:37;4.68;;;3.28;;
54845;SDS011;53889;50.084;8.646;2022-08-19T13:44:12;4.07;;;3.30;;
54845;SDS011;53889;50.084;8.646;2022-08-19T13:46:40;4.55;;;3.30;;
54845;SDS011;53889;50.084;8.646;2022-08-19T13:49:09;4.38;;;3.20;;
54845;SDS011;53889;50.084;8.646;2022-08-19T13:51:37;4.47;;;3.35;;
54845;SDS011;53889;50.084;8.646;2022-08-19T13:54:05;4.78;;;3.25;;
54845;SDS011;53889;50.084;8.646;2022-08-19T13:56:35;3.15;;;2.70;;
54845;SDS011;53889;50.084;8.646;2022-08-19T13:59:05;6.57;;;3.38;;
54845;SDS011;53889;50.084;8.646;2022-08-19T14:01:32;5.70;;;2.92;;
54845;SDS011;53889;50.084;8.646;2022-08-19T14:04:00;6.03;;;2.97;;
54845;SDS011;53889;50.084;8.646;2022-08-19T14:06:26;4.00;;;3.10;;
54845;SDS011;53889;50.084;8.646;2022-08-19T14:08:53;4.38;;;2.63;;
54845;SDS011;53889;50.084;8.646;2022-08-19T14:11:20;3.80;;;2.45;;
54845;SDS011;53889;50.084;8.646;2022-08-19T14:13:49;3.53;;;2.60;;
54845;SDS011;53889;50.084;8.646;2022-08-19T14:16:16;3.85;;;2.80;;
54845;SDS011;53889;50.084;8.646;2022-08-19T14:18:43;2.92;;;2.55;;
54845;SDS011;53889;50.084;8.646;2022-08-19T14:21:13;3.65;;;2.80;;
54845;SDS011;53889;50.084;8.646;2022-08-19T14:23:42;3.13;;;2.42;;
54845;SDS011;53889;50.084;8.646;2022-08-19T14:26:10;4.43;;;2.60;;
54845;SDS011;53889;50.084;8.646;2022-08-19T14:28:38;4.05;;;2.50;;
54845;SDS011;53889;50.084;8.646;2022-08-19T14:31:07;3.08;;;2.50;;
54845;SDS011;53889;50.084;8.646;2022-08-19T14:33:34;4.78;;;2.50;;
54845;SDS011;53889;50.084;8.646;2022-08-19T14:36:01;4.68;;;2.60;;
54845;SDS011;53889;50.084;8.646;2022-08-19T14:38:28;4.82;;;2.42;;
54845;SDS011;53889;50.084;8.646;2022-08-19T14:41:04;4.28;;;2.50;;
54845;SDS011;53889;50.084;8.646;2022-08-19T14:43:32;5.55;;;2.50;;
54845;SDS011;53889;50.084;8.646;2022-08-19T14:45:59;5.78;;;2.50;;
54845;SDS011;53889;50.084;8.646;2022-08-19T14:48:28;3.83;;;2.50;;
54845;SDS011;53889;50.084;8.646;2022-08-19T14:50:54;4.50;;;2.67;;
54845;SDS011;53889;50.084;8.646;2022-08-19T14:53:21;3.00;;;2.40;;